Time;durP1;ratioP1;P1;durP2;ratioP2;P2;SDS_P1;SDS_P2;PMS_P1;PMS_P2;Temp;Humidity;BMP_temperature;BMP_pressure;BME280_temperature;BME280_humidity;BME280_pressure;Samples;Min_cycle;Max_cycle;Signal;HPM_P1;HPM_P2
2022/04/14 04:07:21;;;;;;;;;24.50;18.50;;;;;;;;6126807;39;10001382;-60
2022/04/14 04:13:24;;;;;;;;;38.25;36.00;;;;;;;;6492063;47;9082;-58
2022/04/14 04:19:27;;;;;;;;;49.75;43.50;;;;;;;;6492430;47;8893;-60
2022/04/14 04:25:31;;;;;;;;;47.25;43.00;;;;;;;;6493677;39;8839;-60
2022/04/14 04:31:33;;;;;;;;;48.00;41.25;;;;;;;;6494130;46;8935;-62
2022/04/14 04:37:35;;;;;;;;;51.00;44.00;;;;;;;;6495392;39;9623;-60
2022/04/14 04:43:39;;;;;;;;;50.25;44.50;;;;;;;;6494789;31;9024;-60
2022/04/14 04:49:43;;;;;;;;;57.75;48.50;;;;;;;;6494813;46;8892;-58
2022/04/14 04:55:46;;;;;;;;;55.00;46.50;;;;;;;;6495629;39;8955;-59
2022/04/14 05:01:49;;;;;;;;;54.50;43.75;;;;;;;;6493783;39;9568;-59
2022/04/14 05:07:52;;;;;;;;;69.50;56.00;;;;;;;;6493294;46;8838;-60
2022/04/14 05:13:56;;;;;;;;;70.75;57.00;;;;;;;;6494442;46;8927;-60
2022/04/14 05:19:58;;;;;;;;;64.50;52.00;;;;;;;;6494770;39;8909;-60
2022/04/14 05:26:01;;;;;;;;;66.25;53.00;;;;;;;;6495409;39;8888;-61
2022/04/14 05:32:04;;;;;;;;;64.00;51.50;;;;;;;;6493819;39;8943;-62
2022/04/14 05:38:08;;;;;;;;;54.50;46.25;;;;;;;;6494395;31;9453;-63
2022/04/14 05:44:10;;;;;;;;;49.00;42.00;;;;;;;;6494435;46;8952;-62
2022/04/14 05:50:15;;;;;;;;;39.75;36.00;;;;;;;;6493144;39;9534;-60
2022/04/14 05:56:24;;;;;;;;;51.00;45.00;;;;;;;;6494270;31;8863;-61
2022/04/14 06:02:27;;;;;;;;;54.50;45.25;;;;;;;;6494086;31;8995;-60
2022/04/14 06:08:30;;;;;;;;;42.25;38.50;;;;;;;;6494359;31;8895;-62
2022/04/14 06:14:33;;;;;;;;;50.25;43.75;;;;;;;;6493765;39;8941;-60
2022/04/14 06:20:37;;;;;;;;;44.50;37.75;;;;;;;;6492881;39;8917;-62
2022/04/14 06:26:39;;;;;;;;;35.50;33.25;;;;;;;;6493062;46;8995;-61
2022/04/14 06:32:54;;;;;;;;;50.00;41.75;;;;;;;;6493625;31;8995;-62
2022/04/14 06:38:58;;;;;;;;;50.50;42.00;;;;;;;;6493160;39;8842;-63
2022/04/14 06:45:02;;;;;;;;;77.75;61.25;;;;;;;;6492833;46;8883;-61
2022/04/14 06:51:05;;;;;;;;;28.50;25.25;;;;;;;;6491233;39;8960;-62
2022/04/14 06:57:12;;;;;;;;;41.00;37.00;;;;;;;;6492042;46;8869;-65
2022/04/14 07:03:16;;;;;;;;;44.50;39.50;;;;;;;;6491260;31;8920;-63
2022/04/14 07:09:21;;;;;;;;;52.00;40.75;;;;;;;;6490818;31;8891;-64
2022/04/14 07:15:24;;;;;;;;;34.50;29.50;;;;;;;;6490622;31;8946;-61
2022/04/14 07:21:28;;;;;;;;;30.75;27.50;;;;;;;;6488892;39;8917;-61
2022/04/14 07:27:31;;;;;;;;;32.00;29.33;;;;;;;;6491278;31;8923;-63
2022/04/14 07:33:48;;;;;;;;;52.25;44.75;;;;;;;;6490308;46;8942;-61
2022/04/14 07:39:57;;;;;;;;;35.50;34.50;;;;;;;;6493378;31;8910;-60
2022/04/14 07:45:59;;;;;;;;;27.00;23.33;;;;;;;;6491338;46;8929;-61
2022/04/14 07:52:03;;;;;;;;;25.33;22.67;;;;;;;;6491890;39;8970;-62
2022/04/14 07:58:07;;;;;;;;;23.00;20.67;;;;;;;;6492417;47;8889;-61
2022/04/14 08:04:11;;;;;;;;;22.67;21.67;;;;;;;;6509789;36;9035;-60
2022/04/14 08:10:13;;;;;;;;;24.33;23.00;;;;;;;;6492917;39;8825;-61
2022/04/14 08:16:16;;;;;;;;;26.67;25.33;;;;;;;;6490919;39;8986;-62
2022/04/14 08:22:19;;;;;;;;;25.00;23.67;;;;;;;;6489592;39;8894;-60
2022/04/14 08:28:21;;;;;;;;;28.67;27.00;;;;;;;;6490074;39;8988;-62
2022/04/14 08:34:26;;;;;;;;;23.67;21.00;;;;;;;;6490731;39;8934;-61
2022/04/14 08:40:32;;;;;;;;;23.67;19.67;;;;;;;;6491338;47;8903;-61
2022/04/14 08:46:36;;;;;;;;;22.67;21.00;;;;;;;;6491430;31;8858;-62
2022/04/14 08:52:40;;;;;;;;;22.00;21.67;;;;;;;;6491030;31;8943;-61
2022/04/14 08:58:45;;;;;;;;;16.67;16.33;;;;;;;;6492419;31;9087;-60
2022/04/14 09:04:49;;;;;;;;;26.00;22.00;;;;;;;;6491242;46;8986;-60
2022/04/14 09:10:52;;;;;;;;;23.67;21.00;;;;;;;;6492351;39;8914;-61
2022/04/14 09:16:55;;;;;;;;;16.67;14.67;;;;;;;;6493658;31;8870;-60
2022/04/14 09:23:15;;;;;;;;;25.00;22.67;;;;;;;;6493608;39;8874;-62
2022/04/14 09:29:21;;;;;;;;;14.00;13.33;;;;;;;;6493911;39;10059;-62
2022/04/14 09:35:23;;;;;;;;;20.67;20.67;;;;;;;;6493844;31;8966;-61
2022/04/14 09:41:40;;;;;;;;;18.00;18.00;;;;;;;;6494032;39;9909;-60
2022/04/14 09:47:45;;;;;;;;;19.00;15.50;;;;;;;;6491720;39;8959;-61
2022/04/14 09:53:48;;;;;;;;;16.00;16.00;;;;;;;;6491932;46;8876;-62
2022/04/14 09:59:50;;;;;;;;;29.33;24.67;;;;;;;;6493023;39;9010;-60
2022/04/14 10:05:59;;;;;;;;;16.67;16.67;;;;;;;;6492108;39;8863;-61
2022/04/14 10:12:03;;;;;;;;;18.00;17.33;;;;;;;;6492386;46;8919;-62
2022/04/14 10:18:17;;;;;;;;;29.00;23.67;;;;;;;;6490649;39;8914;-62
2022/04/14 10:24:23;;;;;;;;;50.00;42.67;;;;;;;;6493457;39;8972;-62
2022/04/14 10:30:27;;;;;;;;;18.33;17.00;;;;;;;;6492241;39;8906;-61
2022/04/14 10:36:35;;;;;;;;;21.00;17.67;;;;;;;;6492253;39;8980;-60
2022/04/14 10:42:40;;;;;;;;;31.33;27.00;;;;;;;;6492700;31;8978;-61
2022/04/14 10:48:45;;;;;;;;;27.67;24.00;;;;;;;;6492975;31;8989;-61
2022/04/14 10:54:57;;;;;;;;;12.67;12.67;;;;;;;;6492654;39;8975;-61
2022/04/14 11:01:00;;;;;;;;;14.33;14.33;;;;;;;;6492019;31;8855;-60
2022/04/14 11:07:11;;;;;;;;;15.67;14.67;;;;;;;;6492139;31;8897;-61
2022/04/14 11:13:16;;;;;;;;;20.00;19.33;;;;;;;;6491548;31;9008;-61
2022/04/14 11:19:21;;;;;;;;;21.00;18.00;;;;;;;;6489372;39;9016;-60
2022/04/14 11:25:49;;;;;;;;;20.67;19.00;;;;;;;;6490919;39;8874;-59
2022/04/14 11:31:53;;;;;;;;;21.33;17.00;;;;;;;;6490747;46;8935;-61
2022/04/14 11:37:57;;;;;;;;;22.33;18.33;;;;;;;;6490736;46;8835;-60
2022/04/14 11:44:02;;;;;;;;;18.67;16.67;;;;;;;;6492071;39;8950;-59
2022/04/14 11:50:06;;;;;;;;;50.67;40.33;;;;;;;;6489963;39;8870;-59
2022/04/14 11:56:20;;;;;;;;;9.67;9.67;;;;;;;;6490170;46;8918;-60
2022/04/14 12:02:26;;;;;;;;;14.67;14.00;;;;;;;;6489412;47;8972;-60
2022/04/14 12:08:29;;;;;;;;;15.33;14.67;;;;;;;;6489833;31;8925;-59
2022/04/14 12:14:33;;;;;;;;;47.67;40.00;;;;;;;;6489332;39;8911;-60
2022/04/14 12:20:37;;;;;;;;;20.33;20.33;;;;;;;;6490030;47;8858;-60
2022/04/14 12:26:41;;;;;;;;;18.00;17.00;;;;;;;;6489441;47;9519;-61
2022/04/14 12:32:44;;;;;;;;;17.67;17.67;;;;;;;;6489874;39;8902;-60
2022/04/14 12:38:51;;;;;;;;;34.50;32.50;;;;;;;;6489866;39;8977;-61
2022/04/14 12:45:12;;;;;;;;;10.33;10.00;;;;;;;;6490959;39;8886;-62
2022/04/14 12:51:15;;;;;;;;;16.00;14.33;;;;;;;;6491248;31;9145;-61
2022/04/14 12:57:19;;;;;;;;;5.00;5.00;;;;;;;;6492753;39;8996;-60
2022/04/14 13:03:21;;;;;;;;;16.67;15.67;;;;;;;;6491670;39;8877;-61
2022/04/14 13:09:27;;;;;;;;;11.33;10.67;;;;;;;;6490477;31;8919;-61
2022/04/14 13:15:31;;;;;;;;;56.00;47.75;;;;;;;;6491354;39;8954;-60
2022/04/14 13:21:34;;;;;;;;;13.33;11.67;;;;;;;;6492388;39;8956;-59
2022/04/14 13:27:37;;;;;;;;;24.33;19.00;;;;;;;;6492289;46;8975;-59
2022/04/14 13:33:41;;;;;;;;;13.00;13.00;;;;;;;;6490990;46;8868;-59
2022/04/14 13:39:44;;;;;;;;;60.67;47.33;;;;;;;;6492599;39;9126;-61
2022/04/14 13:45:49;;;;;;;;;172.33;146.00;;;;;;;;6491429;46;8918;-60
2022/04/14 13:51:52;;;;;;;;;89.25;74.25;;;;;;;;6490469;39;9427;-60
2022/04/14 13:57:54;;;;;;;;;10.33;8.00;;;;;;;;6490473;31;8861;-62
2022/04/14 14:03:57;;;;;;;;;17.00;12.67;;;;;;;;6491864;39;8857;-60
2022/04/14 14:09:59;;;;;;;;;13.33;12.33;;;;;;;;6492015;39;9206;-60
2022/04/14 14:16:02;;;;;;;;;11.67;11.67;;;;;;;;6491107;39;8961;-60
2022/04/14 14:22:05;;;;;;;;;12.00;12.00;;;;;;;;6491637;39;9104;-61
2022/04/14 14:28:10;;;;;;;;;7.00;5.00;;;;;;;;6490674;31;9004;-60
2022/04/14 14:34:14;;;;;;;;;14.33;13.33;;;;;;;;6491485;31;8943;-60
2022/04/14 14:40:18;;;;;;;;;10.33;10.00;;;;;;;;6491416;31;8941;-61
2022/04/14 14:46:21;;;;;;;;;13.33;12.00;;;;;;;;6508028;31;8924;-60
2022/04/14 14:52:24;;;;;;;;;10.00;10.00;;;;;;;;6492642;31;8952;-61
2022/04/14 15:04:50;;;;;;;;;12.67;11.33;;;;;;;;6491213;39;8880;-62
2022/04/14 15:10:52;;;;;;;;;11.00;11.00;;;;;;;;6490793;46;8882;-61
2022/04/14 15:16:56;;;;;;;;;12.67;11.67;;;;;;;;6490939;39;9055;-60
2022/04/14 15:22:59;;;;;;;;;10.67;9.67;;;;;;;;6491133;31;8926;-60
2022/04/14 15:29:03;;;;;;;;;15.00;14.00;;;;;;;;6490364;46;9002;-61
2022/04/14 15:35:07;;;;;;;;;11.00;10.67;;;;;;;;6490218;46;8950;-59
2022/04/14 15:41:11;;;;;;;;;12.00;12.00;;;;;;;;6491135;39;8930;-61
2022/04/14 15:47:14;;;;;;;;;11.67;10.33;;;;;;;;6489808;31;8925;-61
2022/04/14 15:53:20;;;;;;;;;14.33;12.33;;;;;;;;6490629;39;9023;-62
2022/04/14 15:59:22;;;;;;;;;15.67;14.33;;;;;;;;6490663;39;8852;-61
2022/04/14 16:05:25;;;;;;;;;20.00;18.00;;;;;;;;6488406;46;8913;-61
2022/04/14 16:17:50;;;;;;;;;14.00;14.00;;;;;;;;6490309;47;8906;-60
2022/04/14 16:23:52;;;;;;;;;24.00;21.33;;;;;;;;6491739;39;8884;-59
2022/04/14 16:29:55;;;;;;;;;27.33;25.33;;;;;;;;6492498;39;9554;-59
2022/04/14 16:35:57;;;;;;;;;24.00;24.00;;;;;;;;6492808;31;8884;-59
2022/04/14 16:42:05;;;;;;;;;18.33;17.67;;;;;;;;6493237;39;8890;-60
2022/04/14 16:48:08;;;;;;;;;19.00;15.33;;;;;;;;6492384;39;8888;-61
2022/04/14 16:54:14;;;;;;;;;22.67;21.67;;;;;;;;6492511;46;8970;-59
2022/04/14 17:00:18;;;;;;;;;19.00;15.33;;;;;;;;6488865;39;9032;-60
2022/04/14 17:06:22;;;;;;;;;18.67;17.67;;;;;;;;6492376;39;9051;-60
2022/04/14 17:12:26;;;;;;;;;21.33;19.00;;;;;;;;6492032;39;8941;-59
2022/04/14 17:18:29;;;;;;;;;20.33;19.33;;;;;;;;6490949;31;8939;-60
2022/04/14 17:24:32;;;;;;;;;20.67;18.67;;;;;;;;6492268;46;8931;-59
2022/04/14 17:30:38;;;;;;;;;23.67;23.00;;;;;;;;6491353;39;8924;-60
2022/04/14 17:36:43;;;;;;;;;16.33;15.67;;;;;;;;6492042;39;8914;-60
2022/04/14 17:42:49;;;;;;;;;18.33;18.33;;;;;;;;6491539;46;8837;-59
2022/04/14 17:48:56;;;;;;;;;22.33;20.00;;;;;;;;6491989;39;8976;-58
2022/04/14 17:54:59;;;;;;;;;22.67;20.67;;;;;;;;6492836;31;8931;-59
2022/04/14 18:01:01;;;;;;;;;19.00;19.00;;;;;;;;6492015;39;8901;-61
2022/04/14 18:07:04;;;;;;;;;16.67;16.33;;;;;;;;6491733;39;8934;-59
2022/04/14 18:13:06;;;;;;;;;15.00;15.00;;;;;;;;6492388;39;8881;-59
2022/04/14 18:19:09;;;;;;;;;26.67;24.67;;;;;;;;6492618;31;8947;-59
2022/04/14 18:25:13;;;;;;;;;38.50;35.00;;;;;;;;6492272;31;8866;-61
2022/04/14 18:31:16;;;;;;;;;35.75;35.75;;;;;;;;6492002;39;8888;-62
2022/04/14 18:37:18;;;;;;;;;28.75;24.75;;;;;;;;6492203;39;9573;-59
2022/04/14 18:43:20;;;;;;;;;27.00;24.75;;;;;;;;6491916;39;9635;-59
2022/04/14 18:49:22;;;;;;;;;24.33;23.00;;;;;;;;6491624;39;9660;-59
2022/04/14 18:55:27;;;;;;;;;25.25;23.25;;;;;;;;6492229;39;8956;-60
2022/04/14 19:01:29;;;;;;;;;19.00;19.00;;;;;;;;6490915;46;8891;-58
2022/04/14 19:07:31;;;;;;;;;23.00;22.00;;;;;;;;6491890;39;8872;-60
2022/04/14 19:13:35;;;;;;;;;26.75;21.75;;;;;;;;6491971;31;8928;-58
2022/04/14 19:19:38;;;;;;;;;28.75;25.25;;;;;;;;6490793;39;9508;-60
2022/04/14 19:25:47;;;;;;;;;25.75;24.75;;;;;;;;6490496;46;8898;-60
2022/04/14 19:31:50;;;;;;;;;29.00;24.25;;;;;;;;6491235;46;8880;-60
2022/04/14 19:37:56;;;;;;;;;19.75;19.75;;;;;;;;6491397;46;8916;-60
2022/04/14 19:44:01;;;;;;;;;27.75;27.75;;;;;;;;6491312;39;8848;-60
2022/04/14 19:50:08;;;;;;;;;29.75;28.75;;;;;;;;6490571;39;8954;-58
2022/04/14 19:56:14;;;;;;;;;30.50;29.50;;;;;;;;6491761;39;8976;-60
2022/04/14 20:02:17;;;;;;;;;33.50;31.25;;;;;;;;6490935;39;8860;-59
2022/04/14 20:08:27;;;;;;;;;35.00;30.75;;;;;;;;6492238;31;9011;-59
2022/04/14 20:14:30;;;;;;;;;30.50;27.25;;;;;;;;6490163;39;8876;-60
2022/04/14 20:20:34;;;;;;;;;36.25;32.25;;;;;;;;6491237;31;8864;-60
2022/04/14 20:26:37;;;;;;;;;38.50;35.50;;;;;;;;6491075;39;9489;-58
2022/04/14 20:32:40;;;;;;;;;28.75;26.75;;;;;;;;6489494;39;8935;-59
2022/04/14 20:38:43;;;;;;;;;34.00;30.00;;;;;;;;6489911;47;8924;-59
2022/04/14 20:44:46;;;;;;;;;31.25;27.75;;;;;;;;6491164;31;8997;-60
2022/04/14 20:50:48;;;;;;;;;35.50;33.00;;;;;;;;6490694;39;8956;-60
2022/04/14 20:56:51;;;;;;;;;39.00;35.00;;;;;;;;6491519;39;8952;-59
2022/04/14 21:02:55;;;;;;;;;40.50;36.00;;;;;;;;6490710;39;8889;-60
2022/04/14 21:08:59;;;;;;;;;33.00;31.75;;;;;;;;6490778;31;8984;-59
2022/04/14 21:15:03;;;;;;;;;39.50;36.00;;;;;;;;6492294;39;9598;-59
2022/04/14 21:21:09;;;;;;;;;39.67;36.33;;;;;;;;6492027;39;8893;-58
2022/04/14 21:27:14;;;;;;;;;34.25;31.25;;;;;;;;6492283;31;8877;-58
2022/04/14 21:33:17;;;;;;;;;36.25;34.00;;;;;;;;6491230;39;9692;-59
2022/04/14 21:39:21;;;;;;;;;34.00;32.25;;;;;;;;6492418;39;9706;-59
2022/04/14 21:45:33;;;;;;;;;35.00;31.25;;;;;;;;6492527;39;8899;-59
2022/04/14 21:51:38;;;;;;;;;35.25;32.75;;;;;;;;6492147;39;9023;-60
2022/04/14 21:57:43;;;;;;;;;36.50;33.75;;;;;;;;6492812;39;8921;-59
2022/04/14 22:03:48;;;;;;;;;40.00;34.50;;;;;;;;6492471;39;8905;-58
2022/04/14 22:09:51;;;;;;;;;35.75;30.50;;;;;;;;6492504;39;8885;-59
2022/04/14 22:15:53;;;;;;;;;36.00;32.25;;;;;;;;6491481;39;8987;-59
2022/04/14 22:21:56;;;;;;;;;29.50;26.25;;;;;;;;6491616;39;8976;-59
2022/04/14 22:28:04;;;;;;;;;38.00;34.00;;;;;;;;6492346;39;8915;-60
2022/04/14 22:34:06;;;;;;;;;27.50;27.50;;;;;;;;6491393;46;8924;-59
2022/04/14 22:40:10;;;;;;;;;32.00;29.00;;;;;;;;6491483;46;8956;-60
2022/04/14 22:46:15;;;;;;;;;36.50;32.25;;;;;;;;6491539;39;9077;-59
2022/04/14 22:52:18;;;;;;;;;32.25;29.75;;;;;;;;6491405;39;8999;-59
2022/04/14 22:58:22;;;;;;;;;30.00;25.25;;;;;;;;6491143;39;9018;-60
2022/04/14 23:04:24;;;;;;;;;33.75;30.75;;;;;;;;6491072;31;8845;-60
2022/04/14 23:10:27;;;;;;;;;36.75;36.50;;;;;;;;6491613;46;8895;-58
2022/04/14 23:16:31;;;;;;;;;38.00;36.50;;;;;;;;6491445;39;8959;-59
2022/04/14 23:22:39;;;;;;;;;46.25;40.00;;;;;;;;6491907;39;8880;-60
2022/04/14 23:28:41;;;;;;;;;48.50;41.75;;;;;;;;6491172;46;8891;-58
2022/04/14 23:34:45;;;;;;;;;50.75;43.75;;;;;;;;6491892;39;8959;-62
2022/04/14 23:47:09;;;;;;;;;50.75;43.75;;;;;;;;6491168;39;8892;-61
2022/04/14 23:53:11;;;;;;;;;49.50;43.00;;;;;;;;6491577;31;9015;-59
2022/04/14 23:59:14;;;;;;;;;53.00;45.50;;;;;;;;6491089;46;8880;-60
